LFYR 301030Z AUTO 06011KT 010V090 CAVOK 24/06 Q1018

ElémentsDécodage
LFYR Station météo située sur l'aérodrome de ROMORANTIN Pruniers
301030Z émis le 30 du mois à 10h30 UTC
AUTO Bulletin édité par un automate
06011KT vent du 060°, 11 noeuds
010V090 vent de direction variable entre 010° et 090°
CAVOK Ceiling And Visibility OK
- Visibilité de 10 Km ou plus
- Pas de nuage au-dessous de 1500m ou au-dessous de l'altitude minimale du secteur la plus élevée (si>1500m) et absence de CB
- pas de temps présent significatif
24/06 température 24°C, point de rosée 06°C
 soit une humidité relative de 31%
Q1018 la pression au niveau de la mer (QNH) est de 1018 hPa